Map

Track Data

SID SEASON NUMBER BASIN SUBBASIN NAME ISO_TIME NATURE LAT LON WMO_WIND WMO_PRES WMO_AGENCY TRACK_TYPE DIST2LAND LANDFALL IFLAG USA_AGENCY USA_ATCF_ID USA_LAT USA_LON USA_RECORD USA_STATUS USA_WIND USA_PRES USA_SSHS USA_R34_NE USA_R34_SE USA_R34_SW USA_R34_NW USA_R50_NE USA_R50_SE USA_R50_SW USA_R50_NW USA_R64_NE USA_R64_SE USA_R64_SW USA_R64_NW USA_POCI USA_ROCI USA_RMW USA_EYE TOKYO_LAT TOKYO_LON TOKYO_GRADE TOKYO_WIND TOKYO_PRES TOKYO_R50_DIR TOKYO_R50_LONG TOKYO_R50_SHORT TOKYO_R30_DIR TOKYO_R30_LONG TOKYO_R30_SHORT TOKYO_LAND CMA_LAT CMA_LON CMA_CAT CMA_WIND CMA_PRES HKO_LAT HKO_LON HKO_CAT HKO_WIND HKO_PRES NEWDELHI_LAT NEWDELHI_LON NEWDELHI_GRADE NEWDELHI_WIND NEWDELHI_PRES NEWDELHI_CI NEWDELHI_DP NEWDELHI_POCI REUNION_LAT REUNION_LON REUNION_TYPE REUNION_WIND REUNION_PRES REUNION_TNUM REUNION_CI REUNION_RMW REUNION_R34_NE REUNION_R34_SE REUNION_R34_SW REUNION_R34_NW REUNION_R50_NE REUNION_R50_SE REUNION_R50_SW REUNION_R50_NW REUNION_R64_NE REUNION_R64_SE REUNION_R64_SW REUNION_R64_NW BOM_LAT BOM_LON BOM_TYPE BOM_WIND BOM_PRES BOM_TNUM BOM_CI BOM_RMW BOM_R34_NE BOM_R34_SE BOM_R34_SW BOM_R34_NW BOM_R50_NE BOM_R50_SE BOM_R50_SW BOM_R50_NW BOM_R64_NE BOM_R64_SE BOM_R64_SW BOM_R64_NW BOM_ROCI BOM_POCI BOM_EYE BOM_POS_METHOD BOM_PRES_METHOD NADI_LAT NADI_LON NADI_CAT NADI_WIND NADI_PRES WELLINGTON_LAT WELLINGTON_LON WELLINGTON_WIND WELLINGTON_PRES DS824_LAT DS824_LON DS824_STAGE DS824_WIND DS824_PRES TD9636_LAT TD9636_LON TD9636_STAGE TD9636_WIND TD9636_PRES TD9635_LAT TD9635_LON TD9635_WIND TD9635_PRES TD9635_ROCI NEUMANN_LAT NEUMANN_LON NEUMANN_CLASS NEUMANN_WIND NEUMANN_PRES MLC_LAT MLC_LON MLC_CLASS MLC_WIND MLC_PRES USA_GUST BOM_GUST BOM_GUST_PER REUNION_GUST REUNION_GUST_PER USA_SEAHGT USA_SEARAD_NE USA_SEARAD_SE USA_SEARAD_SW USA_SEARAD_NW STORM_SPEED STORM_DIR
1973289S06078 1974 116 SI MM BERNADETTE 1973-10-16 00:00:00 TS -5.50000 78.4000 reunion main 1300 1300 _____O______O_ -1 -5.50000 78.4000 99 9.90000 -5.50000 78.4000 TC 25 6 215
1973289S06078 1974 116 SI MM BERNADETTE 1973-10-16 03:00:00 TS -5.72502 78.2400 main 1326 1326 _____P______P_ -1 -5.72502 78.2400 99 -5.72502 78.2400 TC 25 7 221
1973289S06078 1974 116 SI MM BERNADETTE 1973-10-16 06:00:00 TS -6.00000 77.9667 reunion main 1364 1364 O____O___OO_O_ jtwc_sh SH041974 -6.00000 77.7000 -1 -6.00000 78.1000 99 9.90000 -6.00000 77.7000 TC -6.00000 77.7000 7 -6.00000 78.1000 TC 25 7 216
1973289S06078 1974 116 SI MM BERNADETTE 1973-10-16 09:00:00 TS -6.28759 77.8245 main 1402 1402 P____P___PP_P_ SH041974 -6.20500 77.6000 -1 -6.34999 77.9925 99 -6.20500 77.6000 TC -6.20314 77.6016 7 -6.34999 77.9925 TC 25 6 207
1973289S06078 1974 116 SI MM BERNADETTE 1973-10-16 12:00:00 TS -6.54030 77.6887 reunion main 1426 1426 O____O___OP_O_ jtwc_sh SH041974 -6.40000 77.5000 -1 -6.70000 77.9000 99 9.90000 -6.40000 77.5000 TC -6.39501 77.5026 7 -6.70000 77.9000 TC 25 5 211
1973289S06078 1974 116 SI MM BERNADETTE 1973-10-16 15:00:00 TS -6.72787 77.5634 main 1450 1450 P____P___PP_P_ SH041974 -6.57250 77.4000 -1 -6.96499 77.8075 99 -6.57250 77.4000 TC -6.56438 77.4022 7 -6.96499 77.8075 TC 27 4 212
1973289S06078 1974 116 SI MM BERNADETTE 1973-10-16 18:00:00 TS -6.90000 77.4600 reunion main 1475 1475 O____O___OO_O_ jtwc_sh SH041974 -6.70000 77.3000 -1 -7.20000 77.7000 99 9.90000 -6.70000 77.3000 TC 25 -6.70000 77.3000 7 -7.20000 77.7000 TC 30 4 215
1973289S06078 1974 116 SI MM BERNADETTE 1973-10-16 21:00:00 TS -7.04812 77.3422 main 1491 1491 P____P___PP_P_ SH041974 -6.75750 77.2000 -1 -7.46500 77.5575 99 -6.75750 77.2000 TC 25 -6.79562 77.1959 7 -7.46500 77.5575 TC 30 4 222
1973289S06078 1974 116 SI MM BERNADETTE 1973-10-17 00:00:00 TS -7.17300 77.2185 reunion main 1515 1515 O____O___OP_O_ jtwc_sh SH041974 -6.80000 77.1000 -1 -7.70000 77.4000 99 9.90000 -6.80000 77.1000 TC 25 -6.86500 77.0924 7 -7.70000 77.4000 TC 30 3 225
1973289S06078 1974 116 SI MM BERNADETTE 1973-10-17 03:00:00 TS -7.29137 77.0955 main 1529 1529 P____P___PP_P_ SH041974 -6.89250 76.9925 -1 -7.87249 77.2500 99 -6.89250 76.9925 TC 25 -6.92687 76.9928 7 -7.87249 77.2500 TC 30 3 226
1973289S06078 1974 116 SI MM BERNADETTE 1973-10-17 06:00:00 TS -7.40000 76.9800 reunion main 1543 1543 O____O___OO_O_ jtwc_sh SH041974 -7.00000 76.9000 -1 -8.00000 77.1000 2 9.90000 -7.00000 76.9000 TC 25 -7.00000 76.9000 7 -8.00000 77.1000 TC 30 3 225
1973289S06078 1974 116 SI MM BERNADETTE 1973-10-17 09:00:00 TS -7.49311 76.8906 main 1556 1556 P____P___PP_P_ SH041974 -7.09249 76.8500 -1 -8.08499 76.9574 2 -7.09249 76.8500 TC 25 -7.11058 76.8381 7 -8.08499 76.9574 TC 30 3 221
1973289S06078 1974 116 SI MM BERNADETTE 1973-10-17 12:00:00 TS -7.60699 76.7960 reunion main 1570 1570 O____O___OP_O_ jtwc_sh SH041974 -7.20000 76.8000 -1 -8.20000 76.8000 99 9.90000 -7.20000 76.8000 TC 25 -7.23493 76.7799 7 -8.20000 76.8000 TC 30 4 216
1973289S06078 1974 116 SI MM BERNADETTE 1973-10-17 15:00:00 TS -7.79336 76.6704 main 1595 1595 P____P___PP_P_ SH041974 -7.34999 76.7225 -1 -8.45001 76.6001 99 -7.34999 76.7225 TC 25 -7.36682 76.7068 7 -8.45001 76.6001 TC 30 5 216
1973289S06078 1974 116 SI MM BERNADETTE 1973-10-17 18:00:00 TS -7.98000 76.5200 reunion main 1622 1622 O____O___OO_O_ jtwc_sh SH041974 -7.50000 76.6000 -1 -8.70000 76.4000 99 9.90000 -7.50000 76.6000 TC 25 -7.50000 76.6000 7 -8.70000 76.4000 TC 30 4 226
1973289S06078 1974 116 SI MM BERNADETTE 1973-10-17 21:00:00 TS -8.09945 76.3456 main 1639 1639 P____P___PP_P_ SH041974 -7.60001 76.4150 -1 -8.82999 76.2350 99 -7.60001 76.4150 TC 25 -7.63724 76.4279 7 -8.82999 76.2350 TC 32 4 239
1973289S06078 1974 116 SI MM BERNADETTE 1973-10-18 00:00:00 TS -8.19452 76.1645 reunion main 1653 1653 O____O___OP_O_ jtwc_sh SH041974 -7.70000 76.2000 -1 -8.90000 76.1000 99 9.90000 -7.70000 76.2000 TC 25 -7.77258 76.2226 7 -8.90000 76.1000 TC 35 4 239
1973289S06078 1974 116 SI MM BERNADETTE 1973-10-18 03:00:00 TS -8.30231 76.0042 main 1671 1671 P____P___PP_P_ SH041974 -7.85750 75.9925 -1 -8.94996 76.0150 99 -7.85750 75.9925 TC 30 -7.89662 76.0060 7 -8.94996 76.0150 TC 35 4 237
1973289S06078 1974 116 SI MM BERNADETTE 1973-10-18 06:00:00 TS -8.40000 75.8400 reunion main 1688 1688 O____O___OO_O_ jtwc_sh SH041974 -8.00000 75.8000 -1 -9.00000 75.9000 3 9.90000 -8.00000 75.8000 TC 35 -8.00000 75.8000 2 -9.00000 75.9000 TC 35 4 244
1973289S06078 1974 116 SI MM BERNADETTE 1973-10-18 09:00:00 TS -8.47213 75.6455 main 1706 1706 P____P___PP_P_ SH041974 -8.06499 75.6425 -1 -9.07755 75.6575 3 -8.06499 75.6425 TC 35 -8.07560 75.6274 2 -9.07755 75.6575 TC 35 4 249
1973289S06078 1974 116 SI MM BERNADETTE 1973-10-18 12:00:00 TS -8.54599 75.4540 reunion main 1709 1709 O____O___OP_O_ jtwc_sh SH041974 -8.10000 75.5000 -1 -9.20000 75.4000 99 9.90000 -8.10000 75.5000 TC 35 -8.12997 75.4699 2 -9.20000 75.4000 TC 35 4 243
1973289S06078 1974 116 SI MM BERNADETTE 1973-10-18 15:00:00 TS -8.65086 75.2965 main 1738 1738 P____P___PP_P_ SH041974 -8.15000 75.3425 -1 -9.39247 75.2350 99 -8.15000 75.3425 TC 35 -8.16936 75.3275 2 -9.39247 75.2350 TC 32 4 234
1973289S06078 1974 116 SI MM BERNADETTE 1973-10-18 18:00:00 TS -8.76000 75.1600 reunion main 1752 1752 O____O___OO_O_ jtwc_sh SH041974 -8.20000 75.2000 -1 -9.60000 75.1000 99 9.90000 -8.20000 75.2000 TC 35 -8.20000 75.2000 2 -9.60000 75.1000 TC 30 3 230
1973289S06078 1974 116 SI MM BERNADETTE 1973-10-18 21:00:00 TS -8.86003 75.0447 main 1770 1770 P____P___PP_P_ SH041974 -8.25749 75.0925 -1 -9.77245 74.9725 99 -8.25749 75.0925 TC 35 -8.24027 75.0937 2 -9.77245 74.9725 TC 27 3 234
1973289S06078 1974 116 SI MM BERNADETTE 1973-10-19 00:00:00 TS -8.93449 74.9200 reunion main 1773 1773 O____O___OP_O_ jtwc_sh SH041974 -8.30000 75.0000 -1 -9.90000 74.8000 99 9.90000 -8.30000 75.0000 TC 35 -8.27244 75.0000 2 -9.90000 74.8000 TC 25 3 248
1973289S06078 1974 116 SI MM BERNADETTE 1973-10-19 03:00:00 TS -8.98571 74.7383 main 1791 1791 P____P___PP_P_ SH041974 -8.30749 74.9075 -1 -10.0101 74.4850 99 -8.30749 74.9075 TC 35 -8.29339 74.9063 2 -10.0101 74.4850 TC 25 4 263
1973289S06078 1974 116 SI MM BERNADETTE 1973-10-19 06:00:00 TS -8.98000 74.5600 reunion main 1795 1789 O____O___OO_O_ jtwc_sh SH041974 -8.30000 74.8000 -1 -10.0000 74.2000 2 9.90000 -8.30000 74.8000 TC 35 -8.30000 74.8000 2 -10.0000 74.2000 TC 25 3 286
1973289S06078 1974 116 SI MM BERNADETTE 1973-10-19 09:00:00 TS -8.89886 74.4280 main 1793 1782 P____P___PP_P_ SH041974 -8.30750 74.6575 -1 -9.79494 74.0824 2 -8.30750 74.6575 TC 35 -8.28939 74.6603 2 -9.79494 74.0824 TC 25 3 314
1973289S06078 1974 116 SI MM BERNADETTE 1973-10-19 12:00:00 TS -8.77300 74.3415 reunion main 1787 1776 O____O___OP_O_ jtwc_sh SH041974 -8.30000 74.5000 -1 -9.50000 74.1000 99 9.90000 -8.30000 74.5000 TC 35 -8.26502 74.5075 2 -9.50000 74.1000 TC 25 3 331
1973289S06078 1974 116 SI MM BERNADETTE 1973-10-19 15:00:00 TS -8.64661 74.2892 main 1766 1755 P____P___PP_P_ SH041974 -8.24999 74.3500 -1 -9.24997 74.1975 99 -8.24999 74.3500 TC 35 -8.23314 74.3509 2 -9.24997 74.1975 TC 25 3 347
1973289S06078 1974 116 SI MM BERNADETTE 1973-10-19 18:00:00 TS -8.52000 74.2800 reunion main 1755 1745 O____O___OO_O_ jtwc_sh SH041974 -8.20000 74.2000 -1 -9.00000 74.4000 99 9.90000 -8.20000 74.2000 TC 35 -8.20000 74.2000 2 -9.00000 74.4000 TC 25 2 8
1973289S06078 1974 116 SI MM BERNADETTE 1973-10-19 21:00:00 TS -8.41178 74.3188 main 1745 1735 P____P___PP_P_ SH041974 -8.20000 74.0425 -1 -8.75009 74.7226 99 -8.20000 74.0425 TC 35 -8.15873 74.0637 2 -8.75009 74.7226 TC 25 2 18
1973289S06078 1974 116 SI MM BERNADETTE 1973-10-20 00:00:00 TS -8.30400 74.3470 reunion main 1735 1724 O____O___OP_O_ jtwc_sh SH041974 -8.20000 73.9000 -1 -8.50000 75.0000 99 9.90000 -8.20000 73.9000 TC 35 -8.11998 73.9350 2 -8.50000 75.0000 TC 25 3 0
1973289S06078 1974 116 SI MM BERNADETTE 1973-10-20 03:00:00 TS -8.16122 74.3097 main 1724 1714 P____P___PP_P_ SH041974 -8.14249 73.7925 -1 -8.21245 75.0749 99 -8.14249 73.7925 TC 35 -8.09624 73.8137 2 -8.21245 75.0749 TC 25 3 333
1973289S06078 1974 116 SI MM BERNADETTE 1973-10-20 06:00:00 TS -8.06000 74.2200 reunion main 1718 1718 O____O___OO_O_ jtwc_sh SH041974 -8.10000 73.7000 -1 -8.00000 75.0000 2 9.90000 -8.10000 73.7000 TC 35 -8.10000 73.7000 2 -8.00000 75.0000 TC 25 2 294
1973289S06078 1974 116 SI MM BERNADETTE 1973-10-20 09:00:00 TS -8.06605 74.0974 main 1723 1723 P____P___PP_P_ SH041974 -8.12750 73.6000 -1 -7.96249 74.8450 2 -8.12750 73.6000 TC 35 -8.15029 73.5969 2 -7.96249 74.8450 TC 25 3 257
1973289S06078 1974 116 SI MM BERNADETTE 1973-10-20 12:00:00 TS -8.12549 73.9400 reunion main 1732 1732 O____O___OP_O_ jtwc_sh SH041974 -8.20000 73.5000 -1 -8.00000 74.6000 99 9.90000 -8.20000 73.5000 TC 35 -8.22747 73.5000 2 -8.00000 74.6000 TC 25 3 250
1973289S06078 1974 116 SI MM BERNADETTE 1973-10-20 15:00:00 TS -8.18318 73.7696 main 1747 1747 P____P___PP_P_ SH041974 -8.30000 73.4000 -1 -7.99999 74.3225 99 -8.30000 73.4000 TC 35 -8.31591 73.4031 2 -7.99999 74.3225 TC 25 4 252
1973289S06078 1974 116 SI MM BERNADETTE 1973-10-20 18:00:00 TS -8.24000 73.5800 reunion main 1756 1756 O____O___OO_O_ jtwc_sh SH041974 -8.40000 73.3000 -1 -8.00000 74.0000 99 9.90000 -8.40000 73.3000 TC 35 -8.40000 73.3000 2 -8.00000 74.0000 TC 25 4 256
1973289S06078 1974 116 SI MM BERNADETTE 1973-10-20 21:00:00 TS -8.27521 73.3878 main 1776 1776 P____P___PP_P_ SH041974 -8.45749 73.2075 -1 -8.00002 73.6425 99 -8.45749 73.2075 TC 35 -8.46102 73.2390 2 -8.00002 73.6425 TC 25 4 261
1973289S06078 1974 116 SI MM BERNADETTE 1973-10-21 00:00:00 TS -8.30292 73.1925 reunion main 1785 1785 O____O___OP_O_ jtwc_sh SH041974 -8.50000 73.1000 -1 -8.00000 73.3000 99 9.90000 -8.50000 73.1000 TC 35 -8.51459 73.1624 2 -8.00000 73.3000 TC 25 4 261
1973289S06078 1974 116 SI MM BERNADETTE 1973-10-21 03:00:00 TS -8.33208 73.0389 main 1795 1795 P____P___PP_P_ SH041974 -8.54991 73.0025 -1 -7.99984 73.0800 99 -8.54991 73.0025 TC 35 -8.56089 73.0296 2 -7.99984 73.0800 TC 25 4 262
1973289S06078 1974 116 SI MM BERNADETTE 1973-10-21 06:00:00 TS -8.36000 72.8000 reunion main 1815 1815 O____O___OO_O_ jtwc_sh SH041974 -8.60000 72.8000 -1 -8.00000 72.8000 2 9.90000 -8.60000 72.8000 TC 35 -8.60000 72.8000 2 -8.00000 72.8000 TC 25 7 265
1973289S06078 1974 116 SI MM BERNADETTE 1973-10-21 09:00:00 TS -8.39200 72.3595 main 1836 1836 P____P___PP_P_ SH041974 -8.65754 72.4025 -1 -8.00010 72.2875 2 -8.65754 72.4025 TC 35 -8.64469 72.4176 2 -8.00010 72.2875 TC 25 10 267
1973289S06078 1974 116 SI MM BERNADETTE 1973-10-21 12:00:00 TS -8.41609 71.8280 reunion main 1869 1869 O____O___OP_O_ jtwc_sh SH041974 -8.70000 71.9000 -1 -8.00000 71.7000 99 9.90000 -8.70000 71.9000 TC 35 -8.68045 71.9401 2 -8.00000 71.7000 TC 25 10 268
1973289S06078 1974 116 SI MM BERNADETTE 1973-10-21 15:00:00 TS -8.42612 71.3265 main 1897 1897 P____P___PP_P_ SH041974 -8.71502 71.3925 -1 -7.99982 71.2150 99 -8.71502 71.3925 TC 35 -8.70092 71.4176 2 -7.99982 71.2150 TC 25 10 270
1973289S06078 1974 116 SI MM BERNADETTE 1973-10-21 18:00:00 TS -8.42000 70.8200 reunion main 1924 1892 O____O___OO_O_ jtwc_sh SH041974 -8.70000 70.9000 -1 -8.00000 70.7000 99 9.90000 -8.70000 70.9000 TC 35 -8.70000 70.9000 2 -8.00000 70.7000 TC 25 10 272
1973289S06078 1974 116 SI MM BERNADETTE 1973-10-21 21:00:00 TS -8.39474 70.3230 main 1884 1846 P____P___PP_P_ SH041974 -8.65738 70.4925 -1 -8.00000 70.0725 99 -8.65738 70.4925 TC 35 -8.65894 70.4848 2 -8.00000 70.0725 TC 25 10 273
1973289S06078 1974 116 SI MM BERNADETTE 1973-10-22 00:00:00 TS -8.35988 69.8159 reunion main 1846 1817 O____O___OP_O_ jtwc_sh SH041974 -8.60000 70.1000 -1 -8.00000 69.4000 99 9.90000 -8.60000 70.1000 TC 35 -8.59938 70.0797 2 -8.00000 69.4000 TC 25 10 274
1973289S06078 1974 116 SI MM BERNADETTE 1973-10-22 03:00:00 TS -8.32502 69.2860 main 1817 1780 P____P___PP_P_ SH041974 -8.54242 69.6725 -1 -8.00005 68.7125 99 -8.54242 69.6725 TC 35 -8.54015 69.6598 2 -8.00005 68.7125 TC 27 10 273
1973289S06078 1974 116 SI MM BERNADETTE 1973-10-22 06:00:00 TS -8.30000 68.7600 reunion main 1780 1745 O____O___OO_O_ jtwc_sh SH041974 -8.50000 69.2000 -1 -8.00000 68.1000 2 9.90000 -8.50000 69.2000 TC 35 -8.50000 69.2000 2 -8.00000 68.1000 TC 30 10 272
1973289S06078 1974 116 SI MM BERNADETTE 1973-10-22 09:00:00 TS -8.29622 68.2750 main 1745 1710 P____P___PP_P_ SH041974 -8.48495 68.6725 -1 -7.99976 67.6850 2 -8.48495 68.6725 TC 35 -8.51167 68.6602 2 -7.99976 67.6850 TC 30 10 269
1973289S06078 1974 116 SI MM BERNADETTE 1973-10-22 12:00:00 TS -8.30853 67.7760 reunion main 1710 1670 O____O___OP_O_ jtwc_sh SH041974 -8.50000 68.1000 -1 -8.00000 67.3000 99 9.90000 -8.50000 68.1000 TC 35 -8.54265 68.0802 2 -8.00000 67.3000 TC 30 11 268
1973289S06078 1974 116 SI MM BERNADETTE 1973-10-22 15:00:00 TS -8.33847 67.2001 main 1670 1628 P____P___PP_P_ SH041974 -8.55751 67.4926 -1 -8.00004 66.7650 99 -8.55751 67.4926 TC 35 -8.57727 67.4852 2 -8.00004 66.7650 TC 30 11 267
1973289S06078 1974 116 SI MM BERNADETTE 1973-10-22 18:00:00 TS -8.36000 66.6200 reunion main 1622 1600 O____O___OO_O_ jtwc_sh SH041974 -8.60000 66.9000 -1 -8.00000 66.2000 99 9.90000 -8.60000 66.9000 TC 35 -8.60000 66.9000 2 -8.00000 66.2000 TC 30 11 270
1973289S06078 1974 116 SI MM BERNADETTE 1973-10-22 21:00:00 TS -8.33901 66.1155 main 1600 1570 P____P___PP_P_ SH041974 -8.55734 66.3924 -1 -7.99988 65.7000 99 -8.55734 66.3924 TC 35 -8.58060 66.3929 2 -7.99988 65.7000 TC 30 10 273
1973289S06078 1974 116 SI MM BERNADETTE 1973-10-23 00:00:00 TS -8.30981 65.6189 reunion main 1570 1542 O____O___OP_O_ jtwc_sh SH041974 -8.50000 65.9000 -1 -8.00000 65.2000 99 9.90000 -8.50000 65.9000 TC 35 -8.54904 65.8947 2 -8.00000 65.2000 TC 30 10 272
1973289S06078 1974 116 SI MM BERNADETTE 1973-10-23 03:00:00 TS -8.30051 65.0928 main 1542 1515 P____P___PP_P_ SH041974 -8.49235 65.3800 -1 -7.99993 64.6650 99 -8.49235 65.3800 TC 35 -8.51801 65.3741 2 -7.99993 64.6650 TC 30 11 271
1973289S06078 1974 116 SI MM BERNADETTE 1973-10-23 06:00:00 TS -8.30000 64.5200 reunion main 1510 1479 O____O___OO_O_ jtwc_sh SH041974 -8.50000 64.8000 -1 -8.00000 64.1000 2 9.90000 -8.50000 64.8000 TC 35 -8.50000 64.8000 2 -8.00000 64.1000 TC 30 12 270
1973289S06078 1974 116 SI MM BERNADETTE 1973-10-23 09:00:00 TS -8.29832 63.8840 main 1479 1447 P____P___PP_P_ SH041974 -8.49244 64.1299 -1 -7.99984 63.5300 2 -8.49244 64.1299 TC 35 -8.50702 64.1001 2 -7.99984 63.5300 TC 30 13 270
1973289S06078 1974 116 SI MM BERNADETTE 1973-10-23 12:00:00 TS -8.30564 63.1900 reunion main 1447 1418 O____O___OP_O_ jtwc_sh SH041974 -8.50000 63.4000 -1 -8.00000 62.9000 99 9.90000 -8.50000 63.4000 TC 35 -8.52818 63.3501 2 -8.00000 62.9000 TC 30 14 269
1973289S06078 1974 116 SI MM BERNADETTE 1973-10-23 15:00:00 TS -8.32906 62.4370 main 1414 1378 P____P___PP_P_ SH041974 -8.54259 62.6201 -1 -7.99998 62.1725 99 -8.54259 62.6201 TC 35 -8.56015 62.6000 2 -7.99998 62.1725 TC 30 15 268
1973289S06078 1974 116 SI MM BERNADETTE 1973-10-23 18:00:00 TS -8.36000 61.7000 reunion main 1378 1328 O____O___OO_O_ jtwc_sh SH041974 -8.60000 61.9000 -1 -8.00000 61.4000 99 9.90000 -8.60000 61.9000 TC 35 -8.60000 61.9000 2 -8.00000 61.4000 TC 30 14 267
1973289S06078 1974 116 SI MM BERNADETTE 1973-10-23 21:00:00 TS -8.38906 61.0668 main 1328 1268 P____P___PP_P_ SH041974 -8.64973 61.3700 -1 -8.00001 60.6200 99 -8.64973 61.3700 TC 35 -8.64582 61.3541 2 -8.00001 60.6200 TC 32 12 267
1973289S06078 1974 116 SI MM BERNADETTE 1973-10-24 00:00:00 TS -8.41971 60.4915 reunion main 1268 1218 O____O___OP_O_ jtwc_sh SH041974 -8.70000 60.9000 -1 -8.00000 59.9000 99 9.90000 -8.70000 60.9000 TC 35 -8.69852 60.8575 2 -8.00000 59.9000 TC 35 11 267
1973289S06078 1974 116 SI MM BERNADETTE 1973-10-24 03:00:00 TS -8.44720 59.9664 main 1218 1154 P____P___PP_P_ SH041974 -8.75731 60.3875 -1 -7.98466 59.3499 99 -8.75731 60.3875 TC 35 -8.75204 60.3572 2 -7.98466 59.3499 TC 35 11 267
1973289S06078 1974 116 SI MM BERNADETTE 1973-10-24 06:00:00 TS -8.48000 59.4000 reunion main 1154 1085 O____O___OO_O_ jtwc_sh SH041974 -8.80000 59.8000 -1 -8.00000 58.8000 3 9.90000 -8.80000 59.8000 TC 35 -8.80000 59.8000 2 -8.00000 58.8000 TC 35 13 267
1973289S06078 1974 116 SI MM BERNADETTE 1973-10-24 09:00:00 TS -8.51076 58.6738 main 1085 1003 P____P___PP_P_ SH041974 -8.80001 59.0799 -1 -8.06263 58.0574 3 -8.80001 59.0799 TC 35 -8.82851 59.0943 2 -8.06263 58.0574 TC 35 15 267
1973289S06078 1974 116 SI MM BERNADETTE 1973-10-24 12:00:00 TS -8.57011 57.9060 reunion main 1003 931 O____O___OP_O_ jtwc_sh SH041974 -8.80000 58.3000 -1 -8.20000 57.3000 99 9.90000 -8.80000 58.3000 TC 35 -8.85055 58.3298 2 -8.20000 57.3000 TC 35 15 263
1973289S06078 1974 116 SI MM BERNADETTE 1973-10-24 15:00:00 TS -8.68834 57.1951 main 931 870 P____P___PP_P_ SH041974 -8.84248 57.5275 -1 -8.44226 56.6851 99 -8.84248 57.5275 TC 35 -8.87223 57.5504 2 -8.44226 56.6851 TC 35 14 260
1973289S06078 1974 116 SI MM BERNADETTE 1973-10-24 18:00:00 TS -8.82000 56.5200 reunion main 860 800 O____O___OO_O_ jtwc_sh SH041974 -8.90000 56.8000 -1 -8.70000 56.1000 99 9.90000 -8.90000 56.8000 TC 35 -8.90000 56.8000 2 -8.70000 56.1000 TC 35 13 260
1973289S06078 1974 116 SI MM BERNADETTE 1973-10-24 21:00:00 TS -8.91949 55.8790 main 800 738 P____P___PP_P_ SH041974 -8.94975 56.1850 -1 -8.88003 55.4350 99 -8.94975 56.1850 TC 35 -8.93791 56.1553 2 -8.88003 55.4350 TC 37 13 262
1973289S06078 1974 116 SI MM BERNADETTE 1973-10-25 00:00:00 TS -8.99677 55.2685 reunion main 738 681 O____O___OP_O_ jtwc_sh SH041974 -9.00000 55.6000 -1 -9.00000 54.8000 99 9.90000 -9.00000 55.6000 TC 35 -8.98386 55.5424 2 -9.00000 54.8000 TC 40 12 264
1973289S06078 1974 116 SI MM BERNADETTE 1973-10-25 03:00:00 TS -9.05038 54.7016 main 675 620 P____P___PP_P_ SH041974 -9.04984 54.9725 -1 -9.05715 54.3148 99 -9.04984 54.9725 TC 35 -9.03792 54.9333 2 -9.05715 54.3148 TC 40 12 265
1973289S06078 1974 116 SI MM BERNADETTE 1973-10-25 06:00:00 TS -9.10000 54.1000 reunion main 620 551 O____O___OO_O_ jtwc_sh SH041974 -9.10000 54.3000 -1 -9.10000 53.8000 3 9.90000 -9.10000 54.3000 TC 35 -9.10000 54.3000 2 -9.10000 53.8000 TC 40 13 265
1973289S06078 1974 116 SI MM BERNADETTE 1973-10-25 09:00:00 TS -9.15678 53.3670 main 551 485 P____P___PP_P_ SH041974 -9.14248 53.5574 -1 -9.17764 53.0724 3 -9.14248 53.5574 TC 35 -9.14365 53.5751 2 -9.17764 53.0724 TC 40 15 265
1973289S06078 1974 116 SI MM BERNADETTE 1973-10-25 12:00:00 TS -9.23957 52.6054 reunion main 485 415 O____O___OP_O_ jtwc_sh SH041974 -9.20000 52.8000 -1 -9.30000 52.3000 99 9.90000 -9.20000 52.8000 TC 35 -9.19785 52.8271 2 -9.30000 52.3000 TC 40 15 262
1973289S06078 1974 116 SI MM BERNADETTE 1973-10-25 15:00:00 TS -9.36650 51.9001 main 415 364 P____P___PP_P_ SH041974 -9.27744 52.0700 -1 -9.49979 51.6351 99 -9.27744 52.0700 TC 35 -9.27806 52.0906 2 -9.49979 51.6351 TC 40 14 258
1973289S06078 1974 116 SI MM BERNADETTE 1973-10-25 18:00:00 TS -9.52000 51.2400 reunion main 357 309 O____O___OO_O_ jtwc_sh SH041974 -9.40000 51.4000 -1 -9.70000 51.0000 99 9.90000 -9.40000 51.4000 TC 35 -9.40000 51.4000 2 -9.70000 51.0000 TC 40 13 256
1973289S06078 1974 116 SI MM BERNADETTE 1973-10-25 21:00:00 TS -9.68012 50.6391 main 304 272 P____P___PP_P_ SH041974 -9.57730 50.8274 -1 -9.82224 50.3724 99 -9.57730 50.8274 TC 35 -9.60152 50.7960 2 -9.82224 50.3724 TC 40 12 254
1973289S06078 1974 116 SI MM BERNADETTE 1973-10-26 00:00:00 TS -9.84833 50.0481 reunion main 268 235 O____O___OP_O_ jtwc_sh SH041974 -9.80000 50.3000 -1 -9.90000 49.7000 99 9.90000 -9.80000 50.3000 TC 35 -9.84165 50.2405 2 -9.90000 49.7000 TC 40 13 254
1973289S06078 1974 116 SI MM BERNADETTE 1973-10-26 03:00:00 TS -10.0293 49.3880 main 235 215 P____P___PP_P_ SH041974 -10.0649 49.7426 -1 -9.96528 48.8700 99 -10.0649 49.7426 TC 35 -10.0860 49.7147 2 -9.96528 48.8700 TC 40 13 255
1973289S06078 1974 116 SI MM BERNADETTE 1973-10-26 06:00:00 TS -10.1800 48.7600 reunion main 217 217 O____O___OO_O_ jtwc_sh SH041974 -10.3000 49.2000 -1 -10.0000 48.1000 3 9.90000 -10.3000 49.2000 TC 35 -10.3000 49.2000 2 -10.0000 48.1000 TC 40 11 258
1973289S06078 1974 116 SI MM BERNADETTE 1973-10-26 09:00:00 TS -10.2567 48.2524 main 224 224 P____P___PP_P_ SH041974 -10.4223 48.6998 -1 -9.99967 47.5974 3 -10.4223 48.6998 TC 35 -10.4397 48.6675 2 -9.99967 47.5974 TC 40 10 262
1973289S06078 1974 116 SI MM BERNADETTE 1973-10-26 12:00:00 TS -10.3089 47.7884 reunion main 252 252 O____O___OP_O_ jtwc_sh SH041974 -10.5000 48.2000 -1 -10.0000 47.2000 99 9.90000 -10.5000 48.2000 TC 35 -10.5446 48.1421 2 -10.0000 47.2000 TC 40 10 263
1973289S06078 1974 116 SI MM BERNADETTE 1973-10-26 15:00:00 TS -10.3794 47.2841 main 281 281 P____P___PP_P_ SH041974 -10.6075 47.6500 -1 -10.0274 46.7500 99 -10.6075 47.6500 TC 35 -10.6272 47.6207 2 -10.0274 46.7500 TC 40 10 261
1973289S06078 1974 116 SI MM BERNADETTE 1973-10-26 18:00:00 TS -10.4600 46.7800 reunion main 312 312 O____O___OO_O_ jtwc_sh SH041974 -10.7000 47.1000 -1 -10.1000 46.3000 99 9.90000 -10.7000 47.1000 TC 35 -10.7000 47.1000 2 -10.1000 46.3000 TC 40 10 260
1973289S06078 1974 116 SI MM BERNADETTE 1973-10-26 21:00:00 TS -10.5466 46.2778 main 352 345 P____P___PP_P_ SH041974 -10.7498 46.5999 -1 -10.2275 45.8275 99 -10.7498 46.5999 TC 35 -10.7783 46.5343 2 -10.2275 45.8275 TC 37 10 259
1973289S06078 1974 116 SI MM BERNADETTE 1973-10-27 00:00:00 TS -10.6501 45.7950 reunion main 384 384 O____O___OP_O_ jtwc_sh SH041974 -10.8000 46.1000 -1 -10.4000 45.4000 99 9.90000 -10.8000 46.1000 TC 35 -10.8503 45.9750 2 -10.4000 45.4000 TC 35 10 256
1973289S06078 1974 116 SI MM BERNADETTE 1973-10-27 03:00:00 TS -10.7844 45.3386 main 426 426 P____P___PP_P_ SH041974 -10.8926 45.5275 -1 -10.6074 45.0925 99 -10.8926 45.5275 TC 35 -10.9221 45.4531 2 -10.6074 45.0925 TC 35 9 253
1973289S06078 1974 116 SI MM BERNADETTE 1973-10-27 06:00:00 TS -10.9200 44.9200 reunion main 452 436 O____O___OO_O_ jtwc_sh SH041974 -11.0000 45.0000 -1 -10.8000 44.8000 3 9.90000 -11.0000 45.0000 TC 35 -11.0000 45.0000 2 -10.8000 44.8000 TC 35 8 253
1973289S06078 1974 116 SI MM BERNADETTE 1973-10-27 09:00:00 TS -11.0190 44.5334 main 426 393 P____P___PP_P_ SH041974 -11.0999 44.5975 -1 -10.9075 44.4074 3 -11.0999 44.5975 TC 35 -11.0801 44.6570 2 -10.9075 44.4074 TC 35 7 255
1973289S06078 1974 116 SI MM BERNADETTE 1973-10-27 12:00:00 TS -11.1139 44.1964 reunion main 393 361 O____O___OP_O_ jtwc_sh SH041974 -11.2000 44.3000 -1 -11.0000 44.0000 99 9.90000 -11.2000 44.3000 TC 35 -11.1693 44.3822 2 -11.0000 44.0000 TC 35 6 251
1973289S06078 1974 116 SI MM BERNADETTE 1973-10-27 15:00:00 TS -11.2167 43.9342 main 361 340 P____P___PP_P_ SH041974 -11.2924 44.0924 -1 -11.1123 43.6723 99 -11.2924 44.0924 TC 35 -11.2739 44.1414 2 -11.1123 43.6723 TC 35 6 245
1973289S06078 1974 116 SI MM BERNADETTE 1973-10-27 18:00:00 TS -11.3600 43.6600 reunion main 341 297 O____O___OO_O_ jtwc_sh SH041974 -11.4000 43.9000 -1 -11.3000 43.3000 99 9.90000 -11.4000 43.9000 TC 35 -11.4000 43.9000 2 -11.3000 43.3000 TC 35 7 242
1973289S06078 1974 116 SI MM BERNADETTE 1973-10-27 21:00:00 TS -11.5634 43.2633 main 297 251 P____P___PP_P_ SH041974 -11.5350 43.6150 -1 -11.5978 42.7277 99 -11.5350 43.6150 TC 30 -11.5513 43.6309 2 -11.5978 42.7277 TC 32 9 239
1973289S06078 1974 116 SI MM BERNADETTE 1973-10-28 00:00:00 TS -11.8246 42.8671 reunion main 251 217 O____O___OP_O_ jtwc_sh SH041974 -11.7000 43.3000 -1 -12.0000 42.2000 99 9.90000 -11.7000 43.3000 TC 25 -11.7231 43.3355 2 -12.0000 42.2000 TC 30 9 230
1973289S06078 1974 116 SI MM BERNADETTE 1973-10-28 03:00:00 TS -12.1306 42.5704 main 217 196 P____P___PP_P_ SH041974 -11.8925 42.9951 -1 -12.4798 41.9199 99 -11.8925 42.9951 TC 25 -11.9083 43.0223 2 -12.4798 41.9199 TC 27 8 219
1973289S06078 1974 116 SI MM BERNADETTE 1973-10-28 06:00:00 TS -12.4600 42.3400 reunion main 184 O____O___OO_O_ jtwc_sh SH041974 -12.1000 42.7000 -1 -13.0000 41.8000 6 9.90000 -12.1000 42.7000 TC 25 -12.1000 42.7000 1 -13.0000 41.8000 TC 25 8 214

About IBTrACS Database

This database is a web-friendly format of International Best Track Archive for Climate Stewardship (IBTrACS), a global best track data archive curated by NOAA dating back to 1842.

Updated: 2021-12-06